New Laguna, New Mexico
Current Conditions -  °F | °C
As of 10:16 PM on Friday 24 Oct 2014 (Local Time) from KGNT Reporting Station
Clear Clear  
Wind Chill: 39°   Ceiling: Unl
Heat Index: 45°   Visibility: 10mi
Dew Point: 25°   Wind: 12mph
Humidity: 46%   Direction: 310°NW
Pressure: 30.38"   Gusts: 17mph
Location:  35.04°N, 107.42°W
Report Text: KGNT 250416Z AUTO 31010G15KT 10SM CLR 07/M04 A3038 RMK AO2
Loading
Personal Weather Stations






























Interactive Weather Map
Tropical Storm Tracking
New forecast layout! Learn more

10-Day Weather Forecast

Advertisements
Track Severe Weather on mobile